Time,TemperatureF,DewpointF,PressureIn,WindDirection,WindDirectionDegrees,WindSpeedMPH,WindSpeedGustMPH,Humidity,HourlyPrecipIn,Conditions,Clouds,dailyrainin,SoftwareType,DateUTC
2013-11-07 00:01:00,29.4,23.1,30.17,NW,315,0.0,0.0,77,0.00,,,0.00,WUHU21636XXSP,2013-11-07 06:01:00,
2013-11-07 00:06:00,29.6,23.3,30.17,NW,315,0.0,0.0,77,0.00,,,0.00,WUHU21636XXSP,2013-11-07 06:06:00,
2013-11-07 00:11:00,29.6,23.0,30.18,NW,315,0.0,0.0,76,0.00,,,0.00,WUHU21636XXSP,2013-11-07 06:11:00,
2013-11-07 00:16:00,29.8,23.2,30.18,West,270,0.0,0.0,76,0.00,,,0.00,WUHU21636XXSP,2013-11-07 06:16:00,
2013-11-07 00:21:00,29.9,23.3,30.18,West,270,0.0,0.0,76,0.00,,,0.00,WUHU21636XXSP,2013-11-07 06:21:00,
2013-11-07 00:26:00,29.9,23.3,30.18,West,270,0.0,0.0,76,0.00,,,0.00,WUHU21636XXSP,2013-11-07 06:26:00,
2013-11-07 00:31:00,29.9,23.0,30.18,West,270,0.0,0.0,75,0.00,,,0.00,WUHU21636XXSP,2013-11-07 06:31:00,
2013-11-07 00:36:00,29.9,23.0,30.18,West,270,0.0,0.0,75,0.00,,,0.00,WUHU21636XXSP,2013-11-07 06:36:00,
2013-11-07 00:41:00,30.1,23.2,30.17,West,270,0.0,0.0,75,0.00,,,0.00,WUHU21636XXSP,2013-11-07 06:41:00,
2013-11-07 00:46:00,30.1,22.9,30.17,West,270,0.0,0.0,74,0.00,,,0.00,WUHU21636XXSP,2013-11-07 06:46:00,
2013-11-07 00:51:00,30.1,22.9,30.17,West,270,0.0,0.0,74,0.00,,,0.00,WUHU21636XXSP,2013-11-07 06:51:00,
2013-11-07 00:56:00,30.3,23.1,30.17,West,270,0.0,0.0,74,0.00,,,0.00,WUHU21636XXSP,2013-11-07 06:56:00,
2013-11-07 01:01:00,30.6,23.3,30.17,West,270,0.0,0.0,74,0.00,,,0.00,WUHU21636XXSP,2013-11-07 07:01:00,
2013-11-07 01:06:00,30.6,23.6,30.18,West,270,0.0,0.0,75,0.00,,,0.00,WUHU21636XXSP,2013-11-07 07:06:00,
2013-11-07 01:11:00,30.8,24.1,30.17,West,270,0.0,0.0,76,0.00,,,0.00,WUHU21636XXSP,2013-11-07 07:11:00,
2013-11-07 01:16:00,30.8,24.1,30.17,West,270,0.0,0.0,76,0.00,,,0.00,WUHU21636XXSP,2013-11-07 07:16:00,
2013-11-07 01:21:00,30.6,23.6,30.17,West,270,0.0,0.0,75,0.00,,,0.00,WUHU21636XXSP,2013-11-07 07:21:00,
2013-11-07 01:26:00,30.6,23.6,30.17,West,270,0.0,0.0,75,0.00,,,0.00,WUHU21636XXSP,2013-11-07 07:26:00,
2013-11-07 01:31:00,30.8,24.1,30.17,West,270,0.0,0.0,76,0.00,,,0.00,WUHU21636XXSP,2013-11-07 07:31:00,
2013-11-07 01:36:00,30.8,24.4,30.16,West,270,0.0,0.0,77,0.00,,,0.00,WUHU21636XXSP,2013-11-07 07:36:00,
2013-11-07 01:41:00,30.8,24.1,30.16,West,270,0.0,0.0,76,0.00,,,0.00,WUHU21636XXSP,2013-11-07 07:41:00,
2013-11-07 01:46:00,30.8,24.1,30.17,West,270,0.0,0.0,76,0.00,,,0.00,WUHU21636XXSP,2013-11-07 07:46:00,
2013-11-07 01:51:00,30.8,24.1,30.16,West,270,0.0,0.0,76,0.00,,,0.00,WUHU21636XXSP,2013-11-07 07:51:00,
2013-11-07 01:56:00,30.6,23.9,30.17,West,270,0.0,0.0,76,0.00,,,0.00,WUHU21636XXSP,2013-11-07 07:56:00,
2013-11-07 02:01:00,30.6,23.9,30.16,West,270,0.0,0.0,76,0.00,,,0.00,WUHU21636XXSP,2013-11-07 08:01:00,
2013-11-07 02:06:00,30.1,23.5,30.16,West,270,0.0,0.0,76,0.00,,,0.00,WUHU21636XXSP,2013-11-07 08:06:00,
2013-11-07 02:11:00,29.9,23.3,30.16,West,270,0.0,0.0,76,0.00,,,0.00,WUHU21636XXSP,2013-11-07 08:11:00,
2013-11-07 02:16:00,29.8,23.2,30.17,West,270,0.0,0.0,76,0.00,,,0.00,WUHU21636XXSP,2013-11-07 08:16:00,
2013-11-07 02:21:00,29.6,23.3,30.16,West,270,0.0,0.0,77,0.00,,,0.00,WUHU21636XXSP,2013-11-07 08:21:00,
2013-11-07 02:26:00,29.2,22.9,30.16,West,270,0.0,0.0,77,0.00,,,0.00,WUHU21636XXSP,2013-11-07 08:26:00,
2013-11-07 02:31:00,29.2,22.9,30.16,West,270,0.0,0.0,77,0.00,,,0.00,WUHU21636XXSP,2013-11-07 08:31:00,
2013-11-07 02:36:00,29.2,22.9,30.17,West,270,0.0,0.0,77,0.00,,,0.00,WUHU21636XXSP,2013-11-07 08:36:00,
2013-11-07 02:41:00,28.9,22.6,30.16,West,270,0.0,0.0,77,0.00,,,0.00,WUHU21636XXSP,2013-11-07 08:41:00,
2013-11-07 02:46:00,28.7,22.4,30.16,West,270,0.0,0.0,77,0.00,,,0.00,WUHU21636XXSP,2013-11-07 08:46:00,
2013-11-07 02:51:00,28.2,22.0,30.16,West,270,0.0,0.0,77,0.00,,,0.00,WUHU21636XXSP,2013-11-07 08:51:00,
2013-11-07 02:56:00,28.2,22.0,30.16,West,270,0.0,0.0,77,0.00,,,0.00,WUHU21636XXSP,2013-11-07 08:56:00,
2013-11-07 03:01:00,28.0,22.1,30.16,West,270,0.0,0.0,78,0.00,,,0.00,WUHU21636XXSP,2013-11-07 09:01:00,
2013-11-07 03:06:00,28.0,22.1,30.16,West,270,0.0,0.0,78,0.00,,,0.00,WUHU21636XXSP,2013-11-07 09:06:00,
2013-11-07 03:11:00,27.9,22.0,30.16,West,270,0.0,0.0,78,0.00,,,0.00,WUHU21636XXSP,2013-11-07 09:11:00,
2013-11-07 03:16:00,27.7,21.8,30.16,West,270,0.0,0.0,78,0.00,,,0.00,WUHU21636XXSP,2013-11-07 09:16:00,
2013-11-07 03:21:00,27.7,21.8,30.16,West,270,0.0,0.0,78,0.00,,,0.00,WUHU21636XXSP,2013-11-07 09:21:00,
2013-11-07 03:26:00,27.5,21.9,30.16,West,270,0.0,0.0,79,0.00,,,0.00,WUHU21636XXSP,2013-11-07 09:26:00,
2013-11-07 03:31:00,27.3,21.7,30.16,West,270,0.0,0.0,79,0.00,,,0.00,WUHU21636XXSP,2013-11-07 09:31:00,
2013-11-07 03:36:00,27.3,21.7,30.16,West,270,0.0,0.0,79,0.00,,,0.00,WUHU21636XXSP,2013-11-07 09:36:00,
2013-11-07 03:41:00,27.1,21.5,30.16,West,270,0.0,0.0,79,0.00,,,0.00,WUHU21636XXSP,2013-11-07 09:41:00,
2013-11-07 03:46:00,27.1,21.5,30.15,West,270,0.0,0.0,79,0.00,,,0.00,WUHU21636XXSP,2013-11-07 09:46:00,
2013-11-07 03:51:00,27.1,21.5,30.15,West,270,0.0,0.0,79,0.00,,,0.00,WUHU21636XXSP,2013-11-07 09:51:00,
2013-11-07 03:56:00,27.1,21.5,30.15,WSW,247,0.0,0.0,79,0.00,,,0.00,WUHU21636XXSP,2013-11-07 09:56:00,
2013-11-07 04:01:00,27.1,21.5,30.15,WSW,247,0.0,0.0,79,0.00,,,0.00,WUHU21636XXSP,2013-11-07 10:01:00,
2013-11-07 04:06:00,27.1,21.7,30.15,WSW,247,0.0,0.0,80,0.00,,,0.00,WUHU21636XXSP,2013-11-07 10:06:00,
2013-11-07 04:11:00,27.1,21.7,30.15,WSW,247,0.0,0.0,80,0.00,,,0.00,WUHU21636XXSP,2013-11-07 10:11:00,
2013-11-07 04:16:00,27.1,21.7,30.15,WSW,247,0.0,0.0,80,0.00,,,0.00,WUHU21636XXSP,2013-11-07 10:16:00,
2013-11-07 04:21:00,27.1,21.7,30.16,WSW,247,0.0,0.0,80,0.00,,,0.00,WUHU21636XXSP,2013-11-07 10:21:00,
2013-11-07 04:26:00,27.1,21.7,30.15,WSW,247,0.0,0.0,80,0.00,,,0.00,WUHU21636XXSP,2013-11-07 10:26:00,
2013-11-07 04:31:00,27.1,21.7,30.15,WSW,247,0.0,0.0,80,0.00,,,0.00,WUHU21636XXSP,2013-11-07 10:31:00,
2013-11-07 04:36:00,27.1,21.7,30.16,WSW,247,0.0,0.0,80,0.00,,,0.00,WUHU21636XXSP,2013-11-07 10:36:00,
2013-11-07 04:41:00,27.1,21.7,30.16,WSW,247,0.0,0.0,80,0.00,,,0.00,WUHU21636XXSP,2013-11-07 10:41:00,
2013-11-07 04:46:00,27.0,21.6,30.16,WSW,247,0.0,0.0,80,0.00,,,0.00,WUHU21636XXSP,2013-11-07 10:46:00,
2013-11-07 04:51:00,27.0,21.6,30.16,WSW,247,0.0,0.0,80,0.00,,,0.00,WUHU21636XXSP,2013-11-07 10:51:00,
2013-11-07 04:56:00,27.0,21.6,30.16,WSW,247,0.0,0.0,80,0.00,,,0.00,WUHU21636XXSP,2013-11-07 10:56:00,
2013-11-07 05:01:00,27.0,21.9,30.17,WSW,247,0.0,0.0,81,0.00,,,0.00,WUHU21636XXSP,2013-11-07 11:01:00,
2013-11-07 05:06:00,26.8,21.7,30.17,WSW,247,0.0,0.0,81,0.00,,,0.00,WUHU21636XXSP,2013-11-07 11:06:00,
2013-11-07 05:11:00,26.8,21.7,30.17,WSW,247,0.0,0.0,81,0.00,,,0.00,WUHU21636XXSP,2013-11-07 11:11:00,
2013-11-07 05:16:00,27.0,21.9,30.17,WSW,247,0.0,0.0,81,0.00,,,0.00,WUHU21636XXSP,2013-11-07 11:16:00,
2013-11-07 05:21:00,27.0,21.9,30.16,WSW,247,0.0,0.0,81,0.00,,,0.00,WUHU21636XXSP,2013-11-07 11:21:00,
2013-11-07 05:26:00,27.1,22.3,30.17,WSW,247,0.0,0.0,82,0.00,,,0.00,WUHU21636XXSP,2013-11-07 11:26:00,
2013-11-07 05:31:00,27.1,22.3,30.17,WSW,247,0.0,0.0,82,0.00,,,0.00,WUHU21636XXSP,2013-11-07 11:31:00,
2013-11-07 05:34:00,27.1,22.3,30.16,WSW,247,0.0,0.0,82,0.00,,,0.00,WUHU21636XXSP,2013-11-07 11:34:00,
2013-11-07 05:39:00,27.3,22.5,30.16,WSW,247,0.0,0.0,82,0.00,,,0.00,WUHU21636XXSP,2013-11-07 11:39:00,
2013-11-07 05:44:00,27.5,22.7,30.16,WSW,247,0.0,0.0,82,0.00,,,0.00,WUHU21636XXSP,2013-11-07 11:44:00,
2013-11-07 05:49:00,27.7,22.9,30.17,WSW,247,0.0,0.0,82,0.00,,,0.00,WUHU21636XXSP,2013-11-07 11:49:00,
2013-11-07 05:54:00,27.7,22.9,30.16,WSW,247,0.0,0.0,82,0.00,,,0.00,WUHU21636XXSP,2013-11-07 11:54:00,
2013-11-07 05:59:00,28.0,23.2,30.17,WSW,247,0.0,0.0,82,0.00,,,0.00,WUHU21636XXSP,2013-11-07 11:59:00,
2013-11-07 06:04:00,28.0,23.2,30.17,WSW,247,0.0,0.0,82,0.00,,,0.00,WUHU21636XXSP,2013-11-07 12:04:00,
2013-11-07 06:09:00,28.2,23.4,30.17,WSW,247,0.0,0.0,82,0.00,,,0.00,WUHU21636XXSP,2013-11-07 12:09:00,
2013-11-07 06:14:00,28.2,23.4,30.17,WSW,247,0.0,0.0,82,0.00,,,0.00,WUHU21636XXSP,2013-11-07 12:14:00,
2013-11-07 06:19:00,28.7,23.9,30.17,WSW,247,0.0,0.0,82,0.00,,,0.00,WUHU21636XXSP,2013-11-07 12:19:00,
2013-11-07 06:24:00,28.7,23.9,30.17,WSW,247,0.0,0.0,82,0.00,,,0.00,WUHU21636XXSP,2013-11-07 12:24:00,
2013-11-07 06:29:00,29.0,24.2,30.17,WSW,247,0.0,0.0,82,0.00,,,0.00,WUHU21636XXSP,2013-11-07 12:29:00,
2013-11-07 06:34:00,29.2,24.7,30.17,WSW,247,0.0,0.0,83,0.00,,,0.00,WUHU21636XXSP,2013-11-07 12:34:00,
2013-11-07 06:39:00,29.2,24.7,30.17,WSW,247,0.0,0.0,83,0.00,,,0.00,WUHU21636XXSP,2013-11-07 12:39:00,
2013-11-07 06:44:00,29.2,24.4,30.17,WSW,247,0.0,0.0,82,0.00,,,0.00,WUHU21636XXSP,2013-11-07 12:44:00,
2013-11-07 06:49:00,29.4,24.6,30.18,WSW,247,0.0,0.0,82,0.00,,,0.00,WUHU21636XXSP,2013-11-07 12:49:00,
2013-11-07 06:54:00,29.4,24.6,30.18,WSW,247,0.0,0.0,82,0.00,,,0.00,WUHU21636XXSP,2013-11-07 12:54:00,
2013-11-07 06:59:00,29.4,24.6,30.18,WSW,247,0.0,0.0,82,0.00,,,0.00,WUHU21636XXSP,2013-11-07 12:59:00,
2013-11-07 07:04:00,29.6,24.8,30.18,WSW,247,0.0,0.0,82,0.00,,,0.00,WUHU21636XXSP,2013-11-07 13:04:00,
2013-11-07 07:09:00,29.8,25.0,30.18,SW,225,0.0,0.0,82,0.00,,,0.00,WUHU21636XXSP,2013-11-07 13:09:00,
2013-11-07 07:14:00,29.9,25.1,30.18,SW,225,0.0,0.0,82,0.00,,,0.00,WUHU21636XXSP,2013-11-07 13:14:00,
2013-11-07 07:19:00,29.9,25.1,30.18,SW,225,0.0,0.0,82,0.00,,,0.00,WUHU21636XXSP,2013-11-07 13:19:00,
2013-11-07 07:24:00,29.9,25.1,30.19,SW,225,0.0,0.0,82,0.00,,,0.00,WUHU21636XXSP,2013-11-07 13:24:00,
2013-11-07 07:29:00,29.9,24.8,30.19,SW,225,0.0,0.0,81,0.00,,,0.00,WUHU21636XXSP,2013-11-07 13:29:00,
2013-11-07 07:34:00,29.9,24.8,30.19,SW,225,0.0,0.0,81,0.00,,,0.00,WUHU21636XXSP,2013-11-07 13:34:00,
2013-11-07 07:39:00,30.1,25.0,30.19,SW,225,0.0,0.0,81,0.00,,,0.00,WUHU21636XXSP,2013-11-07 13:39:00,
2013-11-07 07:44:00,30.3,25.2,30.19,SW,225,0.0,0.0,81,0.00,,,0.00,WUHU21636XXSP,2013-11-07 13:44:00,
2013-11-07 07:49:00,30.6,25.4,30.19,SW,225,0.0,0.0,81,0.00,,,0.00,WUHU21636XXSP,2013-11-07 13:49:00,
2013-11-07 07:54:00,30.6,25.4,30.19,SW,225,0.0,0.0,81,0.00,,,0.00,WUHU21636XXSP,2013-11-07 13:54:00,
2013-11-07 07:59:00,30.6,25.4,30.19,SW,225,0.0,0.0,81,0.00,,,0.00,WUHU21636XXSP,2013-11-07 13:59:00,
2013-11-07 08:04:00,30.6,25.4,30.19,SW,225,0.0,0.0,81,0.00,,,0.00,WUHU21636XXSP,2013-11-07 14:04:00,
2013-11-07 08:09:00,30.8,25.6,30.20,SW,225,0.0,0.0,81,0.00,,,0.00,WUHU21636XXSP,2013-11-07 14:09:00,
2013-11-07 08:14:00,30.8,25.6,30.20,SW,225,0.0,0.0,81,0.00,,,0.00,WUHU21636XXSP,2013-11-07 14:14:00,
2013-11-07 08:19:00,30.9,25.7,30.20,SW,225,0.0,0.0,81,0.00,,,0.00,WUHU21636XXSP,2013-11-07 14:19:00,
2013-11-07 08:24:00,30.9,25.4,30.21,SW,225,0.0,0.0,80,0.00,,,0.00,WUHU21636XXSP,2013-11-07 14:24:00,
2013-11-07 08:29:00,30.9,25.4,30.20,SW,225,0.0,0.0,80,0.00,,,0.00,WUHU21636XXSP,2013-11-07 14:29:00,
2013-11-07 08:34:00,31.1,25.6,30.20,SW,225,0.0,0.0,80,0.00,,,0.00,WUHU21636XXSP,2013-11-07 14:34:00,
2013-11-07 08:39:00,31.3,25.8,30.21,SSW,202,0.0,0.0,80,0.00,,,0.00,WUHU21636XXSP,2013-11-07 14:39:00,
2013-11-07 08:44:00,31.3,25.8,30.21,SSW,202,0.0,0.0,80,0.00,,,0.00,WUHU21636XXSP,2013-11-07 14:44:00,
2013-11-07 08:49:00,31.3,25.8,30.21,SSW,202,0.0,0.0,80,0.00,,,0.00,WUHU21636XXSP,2013-11-07 14:49:00,
2013-11-07 08:54:00,31.5,26.0,30.22,WSW,247,0.0,0.0,80,0.00,,,0.00,WUHU21636XXSP,2013-11-07 14:54:00,
2013-11-07 08:59:00,31.3,25.2,30.22,SW,225,0.0,0.0,78,0.00,,,0.00,WUHU21636XXSP,2013-11-07 14:59:00,
2013-11-07 09:04:00,31.3,25.5,30.21,SW,225,0.0,0.0,79,0.00,,,0.00,WUHU21636XXSP,2013-11-07 15:04:00,
2013-11-07 09:09:00,31.3,25.2,30.21,SW,225,0.0,0.0,78,0.00,,,0.00,WUHU21636XXSP,2013-11-07 15:09:00,
2013-11-07 09:14:00,31.5,25.8,30.21,South,180,0.0,0.0,79,0.00,,,0.00,WUHU21636XXSP,2013-11-07 15:14:00,
2013-11-07 09:19:00,31.5,25.8,30.21,SW,225,0.0,0.0,79,0.00,,,0.00,WUHU21636XXSP,2013-11-07 15:19:00,
2013-11-07 09:24:00,31.5,25.8,30.21,SW,225,0.0,0.0,79,0.00,,,0.00,WUHU21636XXSP,2013-11-07 15:24:00,
2013-11-07 09:29:00,31.8,25.8,30.21,SW,225,0.0,0.0,78,0.00,,,0.00,WUHU21636XXSP,2013-11-07 15:29:00,
2013-11-07 09:34:00,31.8,25.8,30.21,SW,225,0.0,0.0,78,0.00,,,0.00,WUHU21636XXSP,2013-11-07 15:34:00,
2013-11-07 09:39:00,32.0,26.0,30.21,SW,225,0.0,0.0,78,0.00,,,0.00,WUHU21636XXSP,2013-11-07 15:39:00,
2013-11-07 09:44:00,32.0,26.0,30.21,SW,225,0.0,0.0,78,0.00,,,0.00,WUHU21636XXSP,2013-11-07 15:44:00,
2013-11-07 09:49:00,32.0,26.0,30.21,SW,225,0.0,0.0,78,0.00,,,0.00,WUHU21636XXSP,2013-11-07 15:49:00,
2013-11-07 09:54:00,32.4,26.4,30.21,SSW,202,0.0,0.0,78,0.00,,,0.00,WUHU21636XXSP,2013-11-07 15:54:00,
2013-11-07 09:59:00,32.4,26.4,30.21,SW,225,0.0,0.0,78,0.00,,,0.00,WUHU21636XXSP,2013-11-07 15:59:00,
2013-11-07 10:04:00,32.4,26.1,30.21,SW,225,0.0,0.0,77,0.00,,,0.00,WUHU21636XXSP,2013-11-07 16:04:00,
2013-11-07 10:09:00,32.4,26.1,30.21,WSW,247,0.0,0.0,77,0.00,,,0.00,WUHU21636XXSP,2013-11-07 16:09:00,
2013-11-07 10:14:00,32.4,26.1,30.21,WSW,247,0.0,0.0,77,0.00,,,0.00,WUHU21636XXSP,2013-11-07 16:14:00,
2013-11-07 10:19:00,32.4,26.1,30.21,West,270,0.0,0.0,77,0.00,,,0.00,WUHU21636XXSP,2013-11-07 16:19:00,
2013-11-07 10:24:00,32.4,26.1,30.22,WSW,247,0.0,0.0,77,0.00,,,0.00,WUHU21636XXSP,2013-11-07 16:24:00,
2013-11-07 10:29:00,32.8,26.1,30.21,SW,225,0.0,0.0,76,0.00,,,0.00,WUHU21636XXSP,2013-11-07 16:29:00,
2013-11-07 10:34:00,32.7,26.3,30.22,SW,225,0.0,0.0,77,0.00,,,0.00,WUHU21636XXSP,2013-11-07 16:34:00,
2013-11-07 10:39:00,32.8,26.4,30.22,SSW,202,0.0,0.0,77,0.00,,,0.00,WUHU21636XXSP,2013-11-07 16:39:00,
2013-11-07 10:44:00,32.7,26.0,30.22,SW,225,0.0,0.0,76,0.00,,,0.00,WUHU21636XXSP,2013-11-07 16:44:00,
2013-11-07 10:49:00,33.0,26.3,30.22,SW,225,0.0,0.0,76,0.00,,,0.00,WUHU21636XXSP,2013-11-07 16:49:00,
2013-11-07 10:54:00,33.0,26.3,30.22,SSW,202,0.0,0.0,76,0.00,,,0.00,WUHU21636XXSP,2013-11-07 16:54:00,
2013-11-07 10:59:00,33.4,26.7,30.22,SSW,202,0.0,0.0,76,0.00,,,0.00,WUHU21636XXSP,2013-11-07 16:59:00,
2013-11-07 11:04:00,33.6,26.9,30.22,WSW,247,0.0,0.0,76,0.00,,,0.00,WUHU21636XXSP,2013-11-07 17:04:00,
2013-11-07 11:09:00,33.2,25.8,30.22,West,270,0.0,0.0,74,0.00,,,0.00,WUHU21636XXSP,2013-11-07 17:09:00,
2013-11-07 11:14:00,33.0,26.0,30.22,WSW,247,0.0,0.0,75,0.00,,,0.00,WUHU21636XXSP,2013-11-07 17:14:00,
2013-11-07 11:19:00,33.4,26.7,30.22,SSE,157,0.0,0.0,76,0.00,,,0.00,WUHU21636XXSP,2013-11-07 17:19:00,
2013-11-07 11:24:00,33.7,26.7,30.21,South,180,0.0,0.0,75,0.00,,,0.00,WUHU21636XXSP,2013-11-07 17:24:00,
2013-11-07 11:29:00,33.7,26.3,30.22,WSW,247,0.0,0.0,74,0.00,,,0.00,WUHU21636XXSP,2013-11-07 17:29:00,
2013-11-07 11:34:00,33.7,26.3,30.22,SW,225,0.0,0.0,74,0.00,,,0.00,WUHU21636XXSP,2013-11-07 17:34:00,
2013-11-07 11:39:00,33.9,26.6,30.22,SSW,202,0.0,0.0,74,0.00,,,0.00,WUHU21636XXSP,2013-11-07 17:39:00,
2013-11-07 11:44:00,34.3,26.6,30.22,SW,225,0.0,0.0,73,0.00,,,0.00,WUHU21636XXSP,2013-11-07 17:44:00,
2013-11-07 11:49:00,34.5,26.8,30.21,SSW,202,0.0,0.0,73,0.00,,,0.00,WUHU21636XXSP,2013-11-07 17:49:00,
2013-11-07 11:54:00,34.5,26.8,30.22,SSW,202,0.0,0.0,73,0.00,,,0.00,WUHU21636XXSP,2013-11-07 17:54:00,
2013-11-07 11:58:00,34.3,26.6,30.21,SW,225,0.0,0.0,73,0.00,,,0.00,WUHU21636XXSP,2013-11-07 17:58:00,
2013-11-07 12:03:00,34.3,26.6,30.21,SSW,202,0.0,0.0,73,0.00,,,0.00,WUHU21636XXSP,2013-11-07 18:03:00,
2013-11-07 12:08:00,34.3,26.6,30.21,SW,225,0.0,0.0,73,0.00,,,0.00,WUHU21636XXSP,2013-11-07 18:08:00,
2013-11-07 12:13:00,34.5,26.8,30.21,WSW,247,0.0,0.0,73,0.00,,,0.00,WUHU21636XXSP,2013-11-07 18:13:00,
2013-11-07 12:18:00,34.5,26.8,30.21,WSW,247,0.0,0.0,73,0.00,,,0.00,WUHU21636XXSP,2013-11-07 18:18:00,
2013-11-07 12:23:00,34.5,26.8,30.20,SSW,202,0.0,0.0,73,0.00,,,0.00,WUHU21636XXSP,2013-11-07 18:23:00,
2013-11-07 12:28:00,34.5,26.8,30.21,West,270,0.0,0.0,73,0.00,,,0.00,WUHU21636XXSP,2013-11-07 18:28:00,
2013-11-07 12:33:00,34.3,26.3,30.21,West,270,0.0,0.0,72,0.00,,,0.00,WUHU21636XXSP,2013-11-07 18:33:00,
2013-11-07 12:38:00,34.3,26.6,30.20,SW,225,0.0,0.0,73,0.00,,,0.00,WUHU21636XXSP,2013-11-07 18:38:00,
2013-11-07 12:43:00,35.1,27.3,30.20,SW,225,0.0,0.0,73,0.00,,,0.00,WUHU21636XXSP,2013-11-07 18:43:00,
2013-11-07 12:48:00,35.6,27.5,30.20,SSW,202,0.0,0.0,72,0.00,,,0.00,WUHU21636XXSP,2013-11-07 18:48:00,
2013-11-07 12:53:00,36.5,28.4,30.20,SE,135,0.0,0.0,72,0.00,,,0.00,WUHU21636XXSP,2013-11-07 18:53:00,
2013-11-07 12:58:00,37.5,28.3,30.19,West,270,0.0,0.0,69,0.00,,,0.00,WUHU21636XXSP,2013-11-07 18:58:00,
2013-11-07 13:03:00,37.5,28.0,30.19,WSW,247,0.0,0.0,68,0.00,,,0.00,WUHU21636XXSP,2013-11-07 19:03:00,
2013-11-07 13:08:00,37.7,28.2,30.19,WSW,247,0.0,0.0,68,0.00,,,0.00,WUHU21636XXSP,2013-11-07 19:08:00,
2013-11-07 13:13:00,38.1,28.6,30.18,SSE,157,0.0,0.0,68,0.00,,,0.00,WUHU21636XXSP,2013-11-07 19:13:00,
2013-11-07 13:18:00,38.6,28.3,30.18,WSW,247,0.0,0.0,66,0.00,,,0.00,WUHU21636XXSP,2013-11-07 19:18:00,
2013-11-07 13:23:00,39.4,29.4,30.18,SSE,157,0.0,0.0,67,0.00,,,0.00,WUHU21636XXSP,2013-11-07 19:23:00,
2013-11-07 13:28:00,39.4,28.7,30.18,SW,225,0.0,4.8,65,0.00,,,0.00,WUHU21636XXSP,2013-11-07 19:28:00,
2013-11-07 13:33:00,39.6,28.5,30.18,SSW,202,0.0,4.8,64,0.00,,,0.00,WUHU21636XXSP,2013-11-07 19:33:00,
2013-11-07 13:38:00,39.8,28.7,30.18,WSW,247,0.0,0.0,64,0.00,,,0.00,WUHU21636XXSP,2013-11-07 19:38:00,
2013-11-07 13:43:00,40.3,29.2,30.18,SSW,202,0.0,0.0,64,0.00,,,0.00,WUHU21636XXSP,2013-11-07 19:43:00,
2013-11-07 13:48:00,41.0,29.4,30.17,SSE,157,0.0,0.0,63,0.00,,,0.00,WUHU21636XXSP,2013-11-07 19:48:00,
2013-11-07 13:53:00,41.3,29.7,30.17,West,270,0.0,0.0,63,0.00,,,0.00,WUHU21636XXSP,2013-11-07 19:53:00,
2013-11-07 13:58:00,41.3,28.9,30.17,SW,225,0.0,0.0,61,0.00,,,0.00,WUHU21636XXSP,2013-11-07 19:58:00,
2013-11-07 14:03:00,41.5,29.9,30.18,SW,225,0.0,0.0,63,0.00,,,0.00,WUHU21636XXSP,2013-11-07 20:03:00,
2013-11-07 14:08:00,41.5,29.5,30.18,West,270,0.0,0.0,62,0.00,,,0.00,WUHU21636XXSP,2013-11-07 20:08:00,
2013-11-07 14:13:00,41.0,29.4,30.18,SW,225,0.0,0.0,63,0.00,,,0.00,WUHU21636XXSP,2013-11-07 20:13:00,
2013-11-07 14:18:00,41.0,29.4,30.17,WSW,247,0.0,0.0,63,0.00,,,0.00,WUHU21636XXSP,2013-11-07 20:18:00,
2013-11-07 14:23:00,40.7,29.6,30.17,WSW,247,0.0,0.0,64,0.00,,,0.00,WUHU21636XXSP,2013-11-07 20:23:00,
2013-11-07 14:28:00,40.7,29.6,30.16,South,180,0.0,0.0,64,0.00,,,0.00,WUHU21636XXSP,2013-11-07 20:28:00,
2013-11-07 14:33:00,40.5,29.4,30.17,South,180,0.0,0.0,64,0.00,,,0.00,WUHU21636XXSP,2013-11-07 20:33:00,
2013-11-07 14:38:00,40.5,29.4,30.16,South,180,0.0,0.0,64,0.00,,,0.00,WUHU21636XXSP,2013-11-07 20:38:00,
2013-11-07 14:43:00,40.7,30.0,30.16,SSW,202,0.0,0.0,65,0.00,,,0.00,WUHU21636XXSP,2013-11-07 20:43:00,
2013-11-07 14:48:00,40.7,30.0,30.16,WSW,247,0.0,0.0,65,0.00,,,0.00,WUHU21636XXSP,2013-11-07 20:48:00,
2013-11-07 14:53:00,41.0,29.8,30.16,SSW,202,0.0,0.0,64,0.00,,,0.00,WUHU21636XXSP,2013-11-07 20:53:00,
2013-11-07 14:58:00,41.3,30.1,30.16,SW,225,0.0,0.0,64,0.00,,,0.00,WUHU21636XXSP,2013-11-07 20:58:00,
2013-11-07 15:03:00,41.5,30.3,30.15,SE,135,0.0,0.0,64,0.00,,,0.00,WUHU21636XXSP,2013-11-07 21:03:00,
2013-11-07 15:08:00,42.1,30.5,30.15,WSW,247,0.0,0.0,63,0.00,,,0.00,WUHU21636XXSP,2013-11-07 21:08:00,
2013-11-07 15:13:00,42.1,30.1,30.15,SW,225,0.0,0.0,62,0.00,,,0.00,WUHU21636XXSP,2013-11-07 21:13:00,
2013-11-07 15:18:00,42.1,30.5,30.15,SW,225,0.0,0.0,63,0.00,,,0.00,WUHU21636XXSP,2013-11-07 21:18:00,
2013-11-07 15:23:00,42.1,30.9,30.15,WSW,247,0.0,0.0,64,0.00,,,0.00,WUHU21636XXSP,2013-11-07 21:23:00,
2013-11-07 15:28:00,42.1,30.5,30.15,West,270,0.0,0.0,63,0.00,,,0.00,WUHU21636XXSP,2013-11-07 21:28:00,
2013-11-07 15:33:00,41.5,29.9,30.15,West,270,0.0,0.0,63,0.00,,,0.00,WUHU21636XXSP,2013-11-07 21:33:00,
2013-11-07 15:38:00,41.3,30.1,30.15,West,270,0.0,0.0,64,0.00,,,0.00,WUHU21636XXSP,2013-11-07 21:38:00,
2013-11-07 15:43:00,41.3,30.5,30.15,West,270,0.0,0.0,65,0.00,,,0.00,WUHU21636XXSP,2013-11-07 21:43:00,
2013-11-07 15:48:00,41.3,30.5,30.15,West,270,0.0,0.0,65,0.00,,,0.00,WUHU21636XXSP,2013-11-07 21:48:00,
2013-11-07 15:53:00,41.5,30.3,30.15,SW,225,0.0,0.0,64,0.00,,,0.00,WUHU21636XXSP,2013-11-07 21:53:00,
2013-11-07 15:58:00,41.3,29.3,30.15,WNW,292,0.0,0.0,62,0.00,,,0.00,WUHU21636XXSP,2013-11-07 21:58:00,
2013-11-07 16:03:00,41.2,28.4,30.16,SW,225,7.6,7.6,60,0.00,,,0.00,WUHU21636XXSP,2013-11-07 22:03:00,
2013-11-07 16:08:00,41.2,28.0,30.16,SW,225,0.0,7.6,59,0.00,,,0.00,WUHU21636XXSP,2013-11-07 22:08:00,
2013-11-07 16:13:00,41.2,27.5,30.15,SE,135,0.0,7.6,58,0.00,,,0.00,WUHU21636XXSP,2013-11-07 22:13:00,
2013-11-07 16:18:00,40.7,27.6,30.15,SW,225,0.0,0.0,59,0.00,,,0.00,WUHU21636XXSP,2013-11-07 22:18:00,
2013-11-07 16:23:00,40.5,27.4,30.16,West,270,0.0,0.0,59,0.00,,,0.00,WUHU21636XXSP,2013-11-07 22:23:00,
2013-11-07 16:28:00,40.5,27.8,30.16,ESE,112,0.0,0.0,60,0.00,,,0.00,WUHU21636XXSP,2013-11-07 22:28:00,
2013-11-07 16:33:00,40.3,28.0,30.16,ESE,112,0.0,0.0,61,0.00,,,0.00,WUHU21636XXSP,2013-11-07 22:33:00,
2013-11-07 16:38:00,40.0,27.3,30.16,ESE,112,0.0,0.0,60,0.00,,,0.00,WUHU21636XXSP,2013-11-07 22:38:00,
2013-11-07 16:43:00,39.6,27.7,30.16,ESE,112,0.0,0.0,62,0.00,,,0.00,WUHU21636XXSP,2013-11-07 22:43:00,
2013-11-07 16:48:00,39.4,27.5,30.17,ESE,112,0.0,0.0,62,0.00,,,0.00,WUHU21636XXSP,2013-11-07 22:48:00,
2013-11-07 16:53:00,39.1,27.6,30.16,ESE,112,0.0,0.0,63,0.00,,,0.00,WUHU21636XXSP,2013-11-07 22:53:00,
2013-11-07 16:58:00,38.4,27.4,30.17,ESE,112,0.0,0.0,64,0.00,,,0.00,WUHU21636XXSP,2013-11-07 22:58:00,
2013-11-07 17:03:00,38.1,27.8,30.17,ESE,112,0.0,0.0,66,0.00,,,0.00,WUHU21636XXSP,2013-11-07 23:03:00,
2013-11-07 17:08:00,37.7,27.4,30.17,ESE,112,0.0,0.0,66,0.00,,,0.00,WUHU21636XXSP,2013-11-07 23:08:00,
2013-11-07 17:13:00,37.5,27.2,30.18,ESE,112,0.0,0.0,66,0.00,,,0.00,WUHU21636XXSP,2013-11-07 23:13:00,
2013-11-07 17:18:00,37.2,26.9,30.18,ESE,112,0.0,0.0,66,0.00,,,0.00,WUHU21636XXSP,2013-11-07 23:18:00,
2013-11-07 17:23:00,37.0,27.1,30.18,ESE,112,0.0,0.0,67,0.00,,,0.00,WUHU21636XXSP,2013-11-07 23:23:00,
2013-11-07 17:28:00,37.0,27.1,30.18,ESE,112,0.0,0.0,67,0.00,,,0.00,WUHU21636XXSP,2013-11-07 23:28:00,
2013-11-07 17:33:00,36.8,27.3,30.18,ESE,112,0.0,0.0,68,0.00,,,0.00,WUHU21636XXSP,2013-11-07 23:33:00,
2013-11-07 17:38:00,36.5,27.4,30.18,ESE,112,0.0,0.0,69,0.00,,,0.00,WUHU21636XXSP,2013-11-07 23:38:00,
2013-11-07 17:43:00,36.4,27.3,30.18,ESE,112,0.0,0.0,69,0.00,,,0.00,WUHU21636XXSP,2013-11-07 23:43:00,
2013-11-07 17:48:00,35.8,27.0,30.19,ESE,112,0.0,0.0,70,0.00,,,0.00,WUHU21636XXSP,2013-11-07 23:48:00,
2013-11-07 17:53:00,35.8,27.0,30.18,ESE,112,0.0,0.0,70,0.00,,,0.00,WUHU21636XXSP,2013-11-07 23:53:00,
2013-11-07 17:58:00,35.6,26.8,30.19,ESE,112,0.0,0.0,70,0.00,,,0.00,WUHU21636XXSP,2013-11-07 23:58:00,
2013-11-07 18:03:00,35.6,27.2,30.19,ESE,112,0.0,0.0,71,0.00,,,0.00,WUHU21636XXSP,2013-11-08 00:03:00,
2013-11-07 18:08:00,35.3,27.2,30.19,ESE,112,0.0,0.0,72,0.00,,,0.00,WUHU21636XXSP,2013-11-08 00:08:00,
2013-11-07 18:13:00,35.3,27.2,30.19,ESE,112,0.0,0.0,72,0.00,,,0.00,WUHU21636XXSP,2013-11-08 00:13:00,
2013-11-07 18:18:00,35.1,27.0,30.19,ESE,112,0.0,0.0,72,0.00,,,0.00,WUHU21636XXSP,2013-11-08 00:18:00,
2013-11-07 18:23:00,34.9,26.8,30.20,ESE,112,0.0,0.0,72,0.00,,,0.00,WUHU21636XXSP,2013-11-08 00:23:00,
2013-11-07 18:28:00,34.7,26.9,30.20,ESE,112,0.0,0.0,73,0.00,,,0.00,WUHU21636XXSP,2013-11-08 00:28:00,
2013-11-07 18:33:00,34.3,26.6,30.20,ESE,112,0.0,0.0,73,0.00,,,0.00,WUHU21636XXSP,2013-11-08 00:33:00,
2013-11-07 18:38:00,33.9,26.2,30.19,ESE,112,0.0,0.0,73,0.00,,,0.00,WUHU21636XXSP,2013-11-08 00:38:00,
2013-11-07 18:43:00,33.7,26.0,30.20,ESE,112,0.0,0.0,73,0.00,,,0.00,WUHU21636XXSP,2013-11-08 00:43:00,
2013-11-07 18:48:00,33.4,26.0,30.20,ESE,112,0.0,0.0,74,0.00,,,0.00,WUHU21636XXSP,2013-11-08 00:48:00,
2013-11-07 18:53:00,33.0,25.6,30.20,ESE,112,0.0,0.0,74,0.00,,,0.00,WUHU21636XXSP,2013-11-08 00:53:00,
2013-11-07 18:58:00,33.0,26.0,30.20,ESE,112,0.0,0.0,75,0.00,,,0.00,WUHU21636XXSP,2013-11-08 00:58:00,
2013-11-07 19:03:00,33.0,26.0,30.20,ESE,112,0.0,0.0,75,0.00,,,0.00,WUHU21636XXSP,2013-11-08 01:03:00,
2013-11-07 19:08:00,32.7,25.6,30.20,ESE,112,0.0,0.0,75,0.00,,,0.00,WUHU21636XXSP,2013-11-08 01:08:00,
2013-11-07 19:13:00,32.4,25.4,30.20,ESE,112,0.0,0.0,75,0.00,,,0.00,WUHU21636XXSP,2013-11-08 01:13:00,
2013-11-07 19:18:00,32.0,25.0,30.20,ESE,112,0.0,0.0,75,0.00,,,0.00,WUHU21636XXSP,2013-11-08 01:18:00,
2013-11-07 19:23:00,31.8,24.8,30.20,ESE,112,0.0,0.0,75,0.00,,,0.00,WUHU21636XXSP,2013-11-08 01:23:00,
2013-11-07 19:28:00,31.8,24.8,30.20,ESE,112,0.0,0.0,75,0.00,,,0.00,WUHU21636XXSP,2013-11-08 01:28:00,
2013-11-07 19:33:00,31.5,24.8,30.20,ESE,112,0.0,0.0,76,0.00,,,0.00,WUHU21636XXSP,2013-11-08 01:33:00,
2013-11-07 19:38:00,31.5,24.8,30.20,ESE,112,0.0,0.0,76,0.00,,,0.00,WUHU21636XXSP,2013-11-08 01:38:00,
2013-11-07 19:43:00,31.1,24.4,30.20,ESE,112,0.0,0.0,76,0.00,,,0.00,WUHU21636XXSP,2013-11-08 01:43:00,
2013-11-07 19:48:00,31.1,24.4,30.20,ESE,112,0.0,0.0,76,0.00,,,0.00,WUHU21636XXSP,2013-11-08 01:48:00,
2013-11-07 19:53:00,30.9,24.2,30.20,ESE,112,0.0,0.0,76,0.00,,,0.00,WUHU21636XXSP,2013-11-08 01:53:00,
2013-11-07 19:58:00,30.8,24.1,30.20,ESE,112,0.0,0.0,76,0.00,,,0.00,WUHU21636XXSP,2013-11-08 01:58:00,
2013-11-07 20:03:00,30.6,24.2,30.20,ESE,112,0.0,0.0,77,0.00,,,0.00,WUHU21636XXSP,2013-11-08 02:03:00,
2013-11-07 20:08:00,30.3,24.0,30.20,ESE,112,0.0,0.0,77,0.00,,,0.00,WUHU21636XXSP,2013-11-08 02:08:00,
2013-11-07 20:13:00,30.1,24.1,30.20,ESE,112,0.0,0.0,78,0.00,,,0.00,WUHU21636XXSP,2013-11-08 02:13:00,
2013-11-07 20:18:00,29.9,23.9,30.20,ESE,112,0.0,0.0,78,0.00,,,0.00,WUHU21636XXSP,2013-11-08 02:18:00,
2013-11-07 20:23:00,29.9,23.6,30.20,ESE,112,0.0,0.0,77,0.00,,,0.00,WUHU21636XXSP,2013-11-08 02:23:00,
2013-11-07 20:28:00,29.8,23.8,30.20,ESE,112,0.0,0.0,78,0.00,,,0.00,WUHU21636XXSP,2013-11-08 02:28:00,
2013-11-07 20:33:00,29.6,23.6,30.21,ESE,112,0.0,0.0,78,0.00,,,0.00,WUHU21636XXSP,2013-11-08 02:33:00,
2013-11-07 20:38:00,29.4,23.4,30.21,ESE,112,0.0,0.0,78,0.00,,,0.00,WUHU21636XXSP,2013-11-08 02:38:00,
2013-11-07 20:43:00,29.4,23.7,30.21,ESE,112,0.0,0.0,79,0.00,,,0.00,WUHU21636XXSP,2013-11-08 02:43:00,
2013-11-07 20:48:00,29.2,23.5,30.22,ESE,112,0.0,0.0,79,0.00,,,0.00,WUHU21636XXSP,2013-11-08 02:48:00,
2013-11-07 20:53:00,29.2,23.5,30.22,ESE,112,0.0,0.0,79,0.00,,,0.00,WUHU21636XXSP,2013-11-08 02:53:00,
2013-11-07 20:58:00,29.0,23.3,30.22,ESE,112,0.0,0.0,79,0.00,,,0.00,WUHU21636XXSP,2013-11-08 02:58:00,
2013-11-07 21:03:00,29.0,23.3,30.22,ESE,112,0.0,0.0,79,0.00,,,0.00,WUHU21636XXSP,2013-11-08 03:03:00,
2013-11-07 21:08:00,28.7,23.0,30.22,ESE,112,0.0,0.0,79,0.00,,,0.00,WUHU21636XXSP,2013-11-08 03:08:00,
2013-11-07 21:13:00,28.7,23.3,30.22,ESE,112,0.0,0.0,80,0.00,,,0.00,WUHU21636XXSP,2013-11-08 03:13:00,
2013-11-07 21:18:00,28.7,23.3,30.22,ESE,112,0.0,0.0,80,0.00,,,0.00,WUHU21636XXSP,2013-11-08 03:18:00,
2013-11-07 21:23:00,28.7,23.3,30.22,ESE,112,0.0,0.0,80,0.00,,,0.00,WUHU21636XXSP,2013-11-08 03:23:00,
2013-11-07 21:28:00,28.5,23.1,30.22,ESE,112,0.0,0.0,80,0.00,,,0.00,WUHU21636XXSP,2013-11-08 03:28:00,
2013-11-07 21:33:00,28.2,22.9,30.22,ESE,112,0.0,0.0,80,0.00,,,0.00,WUHU21636XXSP,2013-11-08 03:33:00,
2013-11-07 21:38:00,28.2,22.9,30.22,ESE,112,0.0,0.0,80,0.00,,,0.00,WUHU21636XXSP,2013-11-08 03:38:00,
2013-11-07 21:43:00,28.2,22.9,30.22,ESE,112,0.0,0.0,80,0.00,,,0.00,WUHU21636XXSP,2013-11-08 03:43:00,
2013-11-07 21:48:00,28.2,22.9,30.23,ESE,112,0.0,0.0,80,0.00,,,0.00,WUHU21636XXSP,2013-11-08 03:48:00,
2013-11-07 21:53:00,28.0,22.7,30.23,ESE,112,0.0,0.0,80,0.00,,,0.00,WUHU21636XXSP,2013-11-08 03:53:00,
2013-11-07 21:58:00,28.2,23.2,30.23,ESE,112,0.0,0.0,81,0.00,,,0.00,WUHU21636XXSP,2013-11-08 03:58:00,
2013-11-07 22:03:00,28.2,23.2,30.22,ESE,112,0.0,0.0,81,0.00,,,0.00,WUHU21636XXSP,2013-11-08 04:03:00,
2013-11-07 22:08:00,28.2,23.4,30.23,ESE,112,0.0,0.0,82,0.00,,,0.00,WUHU21636XXSP,2013-11-08 04:08:00,
2013-11-07 22:13:00,28.0,23.2,30.22,ESE,112,0.0,0.0,82,0.00,,,0.00,WUHU21636XXSP,2013-11-08 04:13:00,
2013-11-07 22:18:00,28.0,23.2,30.22,ESE,112,0.0,0.0,82,0.00,,,0.00,WUHU21636XXSP,2013-11-08 04:18:00,
2013-11-07 22:23:00,28.0,23.2,30.22,ESE,112,0.0,0.0,82,0.00,,,0.00,WUHU21636XXSP,2013-11-08 04:23:00,
2013-11-07 22:28:00,28.0,23.2,30.22,ESE,112,0.0,0.0,82,0.00,,,0.00,WUHU21636XXSP,2013-11-08 04:28:00,
2013-11-07 22:33:00,27.9,23.1,30.22,ESE,112,0.0,0.0,82,0.00,,,0.00,WUHU21636XXSP,2013-11-08 04:33:00,
2013-11-07 22:38:00,27.7,22.9,30.22,ESE,112,0.0,0.0,82,0.00,,,0.00,WUHU21636XXSP,2013-11-08 04:38:00,
2013-11-07 22:43:00,27.5,22.7,30.22,ESE,112,0.0,0.0,82,0.00,,,0.00,WUHU21636XXSP,2013-11-08 04:43:00,
2013-11-07 22:48:00,27.3,22.5,30.22,ESE,112,0.0,0.0,82,0.00,,,0.00,WUHU21636XXSP,2013-11-08 04:48:00,
2013-11-07 22:53:00,27.3,22.5,30.22,ESE,112,0.0,0.0,82,0.00,,,0.00,WUHU21636XXSP,2013-11-08 04:53:00,
2013-11-07 22:58:00,27.1,22.3,30.21,ESE,112,0.0,0.0,82,0.00,,,0.00,WUHU21636XXSP,2013-11-08 04:58:00,
2013-11-07 23:01:00,27.1,22.3,30.21,ESE,112,0.0,0.0,82,0.00,,,0.00,WUHU21636XXSP,2013-11-08 05:01:00,
2013-11-07 23:06:00,27.1,22.3,30.21,ESE,112,0.0,0.0,82,0.00,,,0.00,WUHU21636XXSP,2013-11-08 05:06:00,
2013-11-07 23:11:00,27.1,22.3,30.21,ESE,112,0.0,0.0,82,0.00,,,0.00,WUHU21636XXSP,2013-11-08 05:11:00,
2013-11-07 23:16:00,27.0,22.2,30.22,ESE,112,0.0,0.0,82,0.00,,,0.00,WUHU21636XXSP,2013-11-08 05:16:00,
2013-11-07 23:21:00,27.0,22.2,30.22,ESE,112,0.0,0.0,82,0.00,,,0.00,WUHU21636XXSP,2013-11-08 05:21:00,
2013-11-07 23:26:00,26.8,21.7,30.22,ESE,112,0.0,0.0,81,0.00,,,0.00,WUHU21636XXSP,2013-11-08 05:26:00,
2013-11-07 23:31:00,26.8,21.7,30.22,ESE,112,0.0,0.0,81,0.00,,,0.00,WUHU21636XXSP,2013-11-08 05:31:00,
2013-11-07 23:36:00,26.6,21.5,30.22,ESE,112,0.0,0.0,81,0.00,,,0.00,WUHU21636XXSP,2013-11-08 05:36:00,
2013-11-07 23:41:00,26.4,21.3,30.22,ESE,112,0.0,0.0,81,0.00,,,0.00,WUHU21636XXSP,2013-11-08 05:41:00,
2013-11-07 23:46:00,26.4,21.3,30.22,ESE,112,0.0,0.0,81,0.00,,,0.00,WUHU21636XXSP,2013-11-08 05:46:00,
2013-11-07 23:51:00,26.1,21.1,30.22,ESE,112,0.0,0.0,81,0.00,,,0.00,WUHU21636XXSP,2013-11-08 05:51:00,
2013-11-07 23:56:00,26.1,21.1,30.22,ESE,112,0.0,0.0,81,0.00,,,0.00,WUHU21636XXSP,2013-11-08 05:56:00,